createdAt,value
2018-09-27T00:00:03.499Z,66.00
2018-09-27T00:02:31.553Z,66.20
2018-09-27T00:04:59.626Z,66.10
2018-09-27T00:07:27.707Z,66.30
2018-09-27T00:09:55.787Z,66.00
2018-09-27T00:12:23.854Z,65.90
2018-09-27T00:14:51.926Z,66.10
2018-09-27T00:17:19.994Z,66.20
2018-09-27T00:19:48.075Z,66.30
2018-09-27T00:22:16.162Z,66.20
2018-09-27T00:24:44.242Z,66.30
2018-09-27T00:27:12.355Z,66.30
2018-09-27T00:29:40.414Z,66.40
2018-09-27T00:32:08.507Z,66.40
2018-09-27T00:34:36.571Z,66.40
2018-09-27T00:37:04.636Z,66.70
2018-09-27T00:39:32.696Z,66.60
2018-09-27T00:42:00.764Z,66.70
2018-09-27T00:44:28.923Z,66.60
2018-09-27T00:46:57.346Z,66.80
2018-09-27T00:49:25.496Z,66.90
2018-09-27T00:51:53.567Z,66.80
2018-09-27T00:54:21.637Z,67.00
2018-09-27T00:56:49.794Z,66.90
2018-09-27T00:59:17.872Z,67.10
2018-09-27T01:01:45.947Z,66.90
2018-09-27T01:04:14.020Z,67.00
2018-09-27T01:06:42.083Z,67.00
2018-09-27T01:09:10.931Z,67.20
2018-09-27T01:11:39.210Z,67.10
2018-09-27T01:14:07.302Z,67.20
2018-09-27T01:16:35.362Z,67.20
2018-09-27T01:19:03.584Z,67.10
2018-09-27T01:21:31.654Z,67.10
2018-09-27T01:23:59.735Z,67.10
2018-09-27T01:26:27.778Z,67.50
2018-09-27T01:28:55.846Z,67.30
2018-09-27T01:31:23.929Z,67.20
2018-09-27T01:33:52.014Z,67.20
2018-09-27T01:36:20.138Z,67.20
2018-09-27T01:38:48.211Z,67.30
2018-09-27T01:41:16.321Z,67.10
2018-09-27T01:43:44.378Z,67.10
2018-09-27T01:46:12.459Z,67.30
2018-09-27T01:48:40.523Z,67.20
2018-09-27T01:51:08.594Z,67.20
2018-09-27T01:53:36.662Z,67.10
2018-09-27T01:56:04.730Z,67.20
2018-09-27T01:58:32.800Z,67.20
2018-09-27T02:01:00.879Z,67.10
2018-09-27T02:03:28.944Z,67.10
2018-09-27T02:05:57.026Z,66.90
2018-09-27T02:08:25.170Z,67.20
2018-09-27T02:10:53.262Z,67.00
2018-09-27T02:13:21.354Z,67.00
2018-09-27T02:15:49.575Z,67.00
2018-09-27T02:18:17.630Z,66.90
2018-09-27T02:20:45.719Z,66.90
2018-09-27T02:23:13.806Z,66.90
2018-09-27T02:25:41.958Z,66.90
2018-09-27T02:28:10.050Z,66.90
2018-09-27T02:30:38.123Z,66.60
2018-09-27T02:33:06.186Z,66.80
2018-09-27T02:35:34.285Z,66.70
2018-09-27T02:38:02.424Z,66.50
2018-09-27T02:40:30.505Z,66.70
2018-09-27T02:42:58.579Z,66.70
2018-09-27T02:45:26.651Z,66.80
2018-09-27T02:47:54.799Z,66.70
2018-09-27T02:50:22.870Z,66.90
2018-09-27T02:52:50.926Z,66.90
2018-09-27T02:55:18.993Z,66.90
2018-09-27T02:57:47.070Z,67.10
2018-09-27T03:00:15.143Z,66.90
2018-09-27T03:02:43.206Z,66.90
2018-09-27T03:05:11.275Z,67.00
2018-09-27T03:07:39.343Z,67.80
2018-09-27T03:10:07.429Z,67.80
2018-09-27T03:12:35.486Z,67.50
2018-09-27T03:15:03.579Z,67.40
2018-09-27T03:17:31.642Z,67.30
2018-09-27T03:19:59.706Z,67.10
2018-09-27T03:22:27.782Z,67.10
2018-09-27T03:24:55.855Z,67.00
2018-09-27T03:27:23.963Z,67.20
2018-09-27T03:29:52.038Z,67.10
2018-09-27T03:32:20.114Z,67.00
2018-09-27T03:34:48.183Z,67.10
2018-09-27T03:37:16.258Z,67.30
2018-09-27T03:39:44.408Z,67.40
2018-09-27T03:42:12.443Z,67.70
2018-09-27T03:44:40.518Z,67.90
2018-09-27T03:47:08.592Z,67.80
2018-09-27T03:49:36.658Z,67.40
2018-09-27T03:52:04.741Z,67.30
2018-09-27T03:54:32.825Z,67.10
2018-09-27T03:57:00.907Z,66.80
2018-09-27T03:59:28.962Z,66.80
2018-09-27T04:01:57.025Z,66.80
2018-09-27T04:04:25.115Z,66.80
2018-09-27T04:06:53.262Z,66.70
2018-09-27T04:09:21.343Z,66.90
2018-09-27T04:11:49.416Z,66.90
2018-09-27T04:14:17.495Z,66.70
2018-09-27T04:16:45.591Z,66.80
2018-09-27T04:19:13.703Z,66.60
2018-09-27T04:21:41.782Z,66.80
2018-09-27T04:24:10.060Z,66.50
2018-09-27T04:26:37.974Z,66.80
2018-09-27T04:29:06.060Z,66.50
2018-09-27T04:31:34.123Z,66.30
2018-09-27T04:34:02.188Z,66.30
2018-09-27T04:36:30.250Z,66.40
2018-09-27T04:38:58.314Z,66.40
2018-09-27T04:41:26.398Z,66.60
2018-09-27T04:43:54.450Z,66.50
2018-09-27T04:46:22.515Z,66.40
2018-09-27T04:48:50.608Z,66.40
2018-09-27T04:51:18.666Z,66.50
2018-09-27T04:53:46.736Z,66.60
2018-09-27T04:56:14.830Z,67.30
2018-09-27T04:58:42.893Z,67.30
2018-09-27T05:01:10.973Z,67.50
2018-09-27T05:03:39.101Z,67.20
2018-09-27T05:06:07.350Z,67.30
2018-09-27T05:08:35.410Z,66.90
2018-09-27T05:11:03.725Z,67.10
2018-09-27T05:13:31.776Z,66.90
2018-09-27T05:15:59.915Z,67.20
2018-09-27T05:18:27.900Z,67.30
2018-09-27T05:20:55.975Z,67.00
2018-09-27T05:23:24.036Z,67.10
2018-09-27T05:25:52.109Z,67.30
2018-09-27T05:28:20.224Z,67.40
2018-09-27T05:30:48.290Z,67.40
2018-09-27T05:33:16.403Z,67.30
2018-09-27T05:35:44.508Z,67.50
2018-09-27T05:38:12.610Z,67.60
2018-09-27T05:40:40.683Z,67.60
2018-09-27T05:43:08.807Z,68.10
2018-09-27T05:45:37.163Z,67.80
2018-09-27T05:48:05.264Z,67.70
2018-09-27T05:50:33.324Z,67.90
2018-09-27T05:53:01.411Z,67.80
2018-09-27T05:55:29.482Z,68.10
2018-09-27T05:57:57.543Z,68.00
2018-09-27T06:00:25.620Z,68.10
2018-09-27T06:02:53.684Z,68.40
2018-09-27T06:05:21.756Z,68.20
2018-09-27T06:07:49.829Z,69.10
2018-09-27T06:10:17.901Z,68.30
2018-09-27T06:12:45.973Z,68.20
2018-09-27T06:15:14.044Z,68.00
2018-09-27T06:17:42.095Z,68.40
2018-09-27T06:20:10.192Z,68.50
2018-09-27T06:22:38.247Z,68.10
2018-09-27T06:25:06.318Z,68.10
2018-09-27T06:27:34.461Z,68.40
2018-09-27T06:30:02.459Z,67.90
2018-09-27T06:32:30.530Z,67.90
2018-09-27T06:34:58.644Z,67.90
2018-09-27T06:37:26.694Z,67.90
2018-09-27T06:39:54.749Z,67.90
2018-09-27T06:42:22.939Z,67.80
2018-09-27T06:44:51.005Z,68.00
2018-09-27T06:47:19.070Z,67.90
2018-09-27T06:49:47.138Z,67.90
2018-09-27T06:52:15.228Z,67.90
2018-09-27T06:54:43.377Z,68.00
2018-09-27T06:57:11.441Z,67.80
2018-09-27T06:59:39.571Z,67.70
2018-09-27T07:02:07.722Z,68.00
2018-09-27T07:04:35.795Z,68.00
2018-09-27T07:07:03.883Z,68.00
2018-09-27T07:09:31.991Z,68.00
2018-09-27T07:12:00.114Z,68.00
2018-09-27T07:14:28.213Z,68.10
2018-09-27T07:16:56.243Z,67.90
2018-09-27T07:19:24.314Z,68.30
2018-09-27T07:21:52.407Z,68.20
2018-09-27T07:24:20.466Z,68.20
2018-09-27T07:26:49.144Z,68.10
2018-09-27T07:29:17.047Z,68.00
2018-09-27T07:31:45.114Z,67.80
2018-09-27T07:34:13.215Z,67.80
2018-09-27T07:36:41.353Z,67.70
2018-09-27T07:39:10.866Z,68.60
2018-09-27T07:41:39.238Z,68.10
2018-09-27T07:44:07.367Z,68.10
2018-09-27T07:46:35.483Z,67.80
2018-09-27T07:49:03.575Z,67.60
2018-09-27T07:51:31.663Z,67.80
2018-09-27T07:53:59.738Z,68.00
2018-09-27T07:56:27.868Z,67.90
2018-09-27T07:58:55.983Z,67.50
2018-09-27T08:01:24.050Z,67.10
2018-09-27T08:03:52.131Z,67.10
2018-09-27T08:06:20.202Z,67.80
2018-09-27T08:08:48.421Z,66.70
2018-09-27T08:11:16.634Z,65.90
2018-09-27T08:13:44.668Z,66.60
2018-09-27T08:16:12.746Z,66.00
2018-09-27T08:18:40.819Z,66.30
2018-09-27T08:21:09.015Z,66.20
2018-09-27T08:23:36.978Z,66.10
2018-09-27T08:26:05.075Z,66.40
2018-09-27T08:28:33.138Z,65.90
2018-09-27T08:31:01.297Z,66.10
2018-09-27T08:33:29.350Z,66.00
2018-09-27T08:35:57.423Z,66.20
2018-09-27T08:38:25.596Z,65.90
2018-09-27T08:40:53.606Z,65.90
2018-09-27T08:43:21.673Z,65.90
2018-09-27T08:45:49.812Z,65.90
2018-09-27T08:48:17.871Z,65.80
2018-09-27T08:50:46.149Z,65.50
2018-09-27T08:53:14.322Z,65.30
2018-09-27T08:55:42.709Z,65.30
2018-09-27T08:58:10.745Z,65.10
2018-09-27T09:00:38.846Z,64.70
2018-09-27T09:03:06.943Z,65.10
2018-09-27T09:05:34.994Z,65.50
2018-09-27T09:08:03.250Z,64.50
2018-09-27T09:10:31.334Z,63.90
2018-09-27T09:12:59.488Z,64.80
2018-09-27T09:15:27.585Z,63.50
2018-09-27T09:17:55.635Z,62.30
2018-09-27T09:20:23.739Z,62.50
2018-09-27T09:22:51.850Z,62.70
2018-09-27T09:25:19.914Z,62.90
2018-09-27T09:27:47.987Z,62.00
2018-09-27T09:30:16.127Z,62.40
2018-09-27T09:32:44.217Z,61.70
2018-09-27T09:35:12.299Z,60.90
2018-09-27T09:37:40.382Z,60.50
2018-09-27T09:40:08.451Z,60.40
2018-09-27T09:42:36.527Z,60.50
2018-09-27T09:45:04.626Z,59.50
2018-09-27T09:47:32.770Z,59.70
2018-09-27T09:50:01.034Z,58.90
2018-09-27T09:52:29.063Z,59.60
2018-09-27T09:54:57.135Z,58.80
2018-09-27T09:57:25.310Z,58.70
2018-09-27T09:59:53.397Z,58.20
2018-09-27T10:02:21.511Z,57.50
2018-09-27T10:04:49.579Z,57.60
2018-09-27T10:07:17.706Z,57.80
2018-09-27T10:09:45.775Z,57.10
2018-09-27T10:12:13.840Z,58.20
2018-09-27T10:14:41.917Z,57.30
2018-09-27T10:17:09.986Z,57.40
2018-09-27T10:19:38.091Z,57.00
2018-09-27T10:22:06.287Z,57.00
2018-09-27T10:24:34.323Z,56.60
2018-09-27T10:27:02.395Z,56.10
2018-09-27T10:29:30.479Z,55.70
2018-09-27T10:31:58.634Z,55.90
2018-09-27T10:34:26.774Z,55.50
2018-09-27T10:36:54.889Z,56.00
2018-09-27T10:39:23.082Z,55.80
2018-09-27T10:41:51.143Z,55.50
2018-09-27T10:44:19.232Z,55.00
2018-09-27T10:46:47.330Z,55.40
2018-09-27T10:49:15.418Z,55.40
2018-09-27T10:51:43.536Z,55.30
2018-09-27T10:54:11.841Z,55.90
2018-09-27T10:56:39.917Z,54.90
2018-09-27T10:59:07.973Z,55.10
2018-09-27T11:01:36.067Z,55.10
2018-09-27T11:04:04.187Z,54.80
2018-09-27T11:06:32.242Z,54.60
2018-09-27T11:09:00.315Z,54.40
2018-09-27T11:11:28.493Z,53.90
2018-09-27T11:13:56.578Z,54.10
2018-09-27T11:16:24.800Z,53.80
2018-09-27T11:18:52.905Z,53.20
2018-09-27T11:21:20.982Z,54.00
2018-09-27T11:23:49.047Z,53.20
2018-09-27T11:26:17.131Z,53.10
2018-09-27T11:28:50.579Z,53.80
2018-09-27T11:31:24.035Z,53.30
2018-09-27T11:33:52.343Z,53.70
2018-09-27T11:36:20.495Z,54.30
2018-09-27T11:38:48.647Z,53.80
2018-09-27T11:41:16.743Z,54.20
2018-09-27T11:43:44.822Z,53.20
2018-09-27T11:46:12.886Z,52.90
2018-09-27T11:48:41.187Z,52.50
2018-09-27T11:51:09.290Z,51.80
2018-09-27T11:53:37.490Z,52.10
2018-09-27T11:56:05.618Z,50.40
2018-09-27T11:58:33.643Z,50.50
2018-09-27T12:01:01.721Z,49.90
2018-09-27T12:03:29.777Z,50.60
2018-09-27T12:05:57.900Z,50.30
2018-09-27T12:08:25.931Z,48.90
2018-09-27T12:10:53.995Z,50.10
2018-09-27T12:13:22.249Z,49.90
2018-09-27T12:15:50.278Z,49.70
2018-09-27T12:18:18.404Z,49.00
2018-09-27T12:20:46.495Z,48.00
2018-09-27T12:23:14.608Z,48.20
2018-09-27T12:25:42.736Z,48.00
2018-09-27T12:28:10.799Z,48.60
2018-09-27T12:30:38.883Z,48.40
2018-09-27T12:33:06.982Z,48.50
2018-09-27T12:35:35.115Z,48.70
2018-09-27T12:38:03.228Z,48.20
2018-09-27T12:40:31.346Z,47.60
2018-09-27T12:42:59.569Z,47.50
2018-09-27T12:45:27.755Z,48.20
2018-09-27T12:47:55.786Z,46.70
2018-09-27T12:50:23.840Z,47.30
2018-09-27T12:52:51.927Z,44.80
2018-09-27T12:55:19.977Z,46.30
2018-09-27T12:57:48.487Z,46.50
2018-09-27T13:00:16.572Z,47.00
2018-09-27T13:02:44.738Z,47.50
2018-09-27T13:05:12.710Z,47.40
2018-09-27T13:07:40.785Z,46.80
2018-09-27T13:10:08.917Z,46.30
2018-09-27T13:12:37.012Z,46.40
2018-09-27T13:15:05.213Z,46.30
2018-09-27T13:17:33.269Z,46.30
2018-09-27T13:20:01.435Z,46.60
2018-09-27T13:22:29.470Z,46.80
2018-09-27T13:24:57.754Z,47.00
2018-09-27T13:27:25.779Z,46.80
2018-09-27T13:29:53.907Z,46.70
2018-09-27T13:32:21.923Z,47.00
2018-09-27T13:34:50.012Z,46.40
2018-09-27T13:37:18.105Z,46.40
2018-09-27T13:39:46.227Z,46.30
2018-09-27T13:42:14.247Z,46.20
2018-09-27T13:44:42.306Z,45.20
2018-09-27T13:47:10.438Z,45.10
2018-09-27T13:49:38.513Z,42.40
2018-09-27T13:52:06.886Z,43.80
2018-09-27T13:54:34.946Z,44.60
2018-09-27T13:57:03.122Z,44.60
2018-09-27T13:59:31.131Z,45.20
2018-09-27T14:01:59.322Z,44.80
2018-09-27T14:04:27.401Z,44.70
2018-09-27T14:06:55.467Z,44.70
2018-09-27T14:09:23.555Z,45.80
2018-09-27T14:11:51.645Z,44.90
2018-09-27T14:14:19.733Z,45.20
2018-09-27T14:16:47.818Z,44.60
2018-09-27T14:19:15.867Z,44.70
2018-09-27T14:21:43.950Z,44.30
2018-09-27T14:24:12.051Z,44.70
2018-09-27T14:26:40.127Z,44.50
2018-09-27T14:29:08.322Z,44.40
2018-09-27T14:31:36.395Z,43.70
2018-09-27T14:34:04.534Z,43.80
2018-09-27T14:36:32.658Z,43.50
2018-09-27T14:39:00.703Z,43.80
2018-09-27T14:41:28.837Z,41.10
2018-09-27T14:43:56.883Z,42.30
2018-09-27T14:46:24.962Z,42.70
2018-09-27T14:48:53.035Z,42.60
2018-09-27T14:51:21.108Z,43.10
2018-09-27T14:53:49.204Z,42.90
2018-09-27T14:56:17.335Z,42.30
2018-09-27T14:58:45.458Z,43.00
2018-09-27T15:01:13.493Z,43.10
2018-09-27T15:03:41.583Z,44.00
2018-09-27T15:06:09.697Z,43.70
2018-09-27T15:08:37.883Z,44.20
2018-09-27T15:11:06.050Z,43.60
2018-09-27T15:13:34.132Z,43.30
2018-09-27T15:16:02.235Z,43.20
2018-09-27T15:18:30.360Z,43.10
2018-09-27T15:20:58.562Z,43.20
2018-09-27T15:23:26.704Z,43.60
2018-09-27T15:25:54.832Z,43.30
2018-09-27T15:28:22.903Z,43.20
2018-09-27T15:30:51.093Z,42.90
2018-09-27T15:33:19.151Z,42.60
2018-09-27T15:35:47.403Z,43.40
2018-09-27T15:38:15.490Z,43.70
2018-09-27T15:40:43.575Z,44.20
2018-09-27T15:43:15.671Z,44.00
2018-09-27T15:45:43.824Z,44.20
2018-09-27T15:48:11.876Z,44.90
2018-09-27T15:50:39.969Z,44.70
2018-09-27T15:53:08.027Z,44.30
2018-09-27T15:55:36.093Z,44.30
2018-09-27T15:58:04.283Z,44.30
2018-09-27T16:00:33.286Z,43.90
2018-09-27T16:03:01.398Z,44.30
2018-09-27T16:05:29.487Z,44.30
2018-09-27T16:07:57.584Z,44.50
2018-09-27T16:10:25.691Z,44.60
2018-09-27T16:12:53.796Z,45.40
2018-09-27T16:15:21.867Z,45.10
2018-09-27T16:17:49.959Z,45.20
2018-09-27T16:20:18.055Z,45.60
2018-09-27T16:22:46.298Z,45.50
2018-09-27T16:25:14.449Z,46.00
2018-09-27T16:27:42.551Z,46.10
2018-09-27T16:30:10.928Z,46.20
2018-09-27T16:32:39.013Z,46.50
2018-09-27T16:35:07.088Z,47.00
2018-09-27T16:37:35.156Z,47.20
2018-09-27T16:40:03.395Z,47.20
2018-09-27T16:42:31.474Z,47.80
2018-09-27T16:44:59.556Z,47.60
2018-09-27T16:47:27.698Z,47.50
2018-09-27T16:49:55.737Z,47.90
2018-09-27T16:52:23.827Z,47.30
2018-09-27T16:54:51.925Z,47.40
2018-09-27T16:57:20.008Z,47.10
2018-09-27T16:59:48.169Z,47.20
2018-09-27T17:02:16.253Z,47.30
2018-09-27T17:04:44.336Z,47.20
2018-09-27T17:07:12.406Z,47.30
2018-09-27T17:09:40.510Z,47.40
2018-09-27T17:12:08.608Z,47.60
2018-09-27T17:14:36.702Z,48.00
2018-09-27T17:17:04.795Z,47.80
2018-09-27T17:19:32.872Z,47.80
2018-09-27T17:22:01.657Z,47.70
2018-09-27T17:24:29.749Z,47.50
2018-09-27T17:26:57.820Z,47.70
2018-09-27T17:29:25.913Z,47.90
2018-09-27T17:31:54.119Z,48.00
2018-09-27T17:34:22.254Z,47.90
2018-09-27T17:36:50.335Z,47.50
2018-09-27T17:39:18.442Z,47.70
2018-09-27T17:41:46.623Z,47.80
2018-09-27T17:44:14.700Z,47.90
2018-09-27T17:46:42.878Z,48.20
2018-09-27T17:49:10.935Z,48.70
2018-09-27T17:51:39.063Z,48.90
2018-09-27T17:54:07.295Z,49.70
2018-09-27T17:56:35.406Z,49.60
2018-09-27T17:59:03.581Z,49.70
2018-09-27T18:01:31.636Z,49.70
2018-09-27T18:03:59.794Z,50.00
2018-09-27T18:06:27.979Z,50.30
2018-09-27T18:08:56.063Z,50.50
2018-09-27T18:11:24.239Z,50.80
2018-09-27T18:13:52.355Z,50.90
2018-09-27T18:16:20.545Z,51.10
2018-09-27T18:18:48.622Z,51.30
2018-09-27T18:21:16.726Z,51.50
2018-09-27T18:23:44.841Z,51.70
2018-09-27T18:26:13.070Z,51.80
2018-09-27T18:28:41.228Z,52.00
2018-09-27T18:31:09.331Z,52.20
2018-09-27T18:33:37.350Z,52.40
2018-09-27T18:36:05.445Z,52.60
2018-09-27T18:38:33.549Z,52.80
2018-09-27T18:41:01.662Z,53.00
2018-09-27T18:43:29.728Z,53.80
2018-09-27T18:45:57.828Z,54.30
2018-09-27T18:48:26.294Z,54.40
2018-09-27T18:50:54.382Z,54.30
2018-09-27T18:53:22.455Z,54.20
2018-09-27T18:55:50.532Z,54.10
2018-09-27T18:58:18.626Z,54.10
2018-09-27T19:00:46.731Z,54.10
2018-09-27T19:03:14.844Z,53.90
2018-09-27T19:05:42.922Z,54.20
2018-09-27T19:08:11.029Z,54.20
2018-09-27T19:10:39.106Z,54.20
2018-09-27T19:13:07.276Z,54.50
2018-09-27T19:15:35.360Z,54.40
2018-09-27T19:18:03.454Z,54.80
2018-09-27T19:20:31.616Z,54.60
2018-09-27T19:22:59.747Z,54.90
2018-09-27T19:25:28.071Z,54.90
2018-09-27T19:27:56.142Z,55.10
2018-09-27T19:30:24.222Z,55.20
2018-09-27T19:32:52.304Z,55.30
2018-09-27T19:35:20.376Z,55.40
2018-09-27T19:37:48.511Z,55.50
2018-09-27T19:40:16.578Z,55.60
2018-09-27T19:42:44.763Z,55.70
2018-09-27T19:45:12.856Z,56.50
2018-09-27T19:47:40.935Z,56.00
2018-09-27T19:50:09.030Z,56.10
2018-09-27T19:52:37.789Z,56.20
2018-09-27T19:55:05.863Z,56.30
2018-09-27T19:57:33.947Z,57.10
2018-09-27T20:00:02.069Z,56.50
2018-09-27T20:02:30.200Z,56.70
2018-09-27T20:04:58.275Z,56.70
2018-09-27T20:07:26.388Z,56.70
2018-09-27T20:09:54.489Z,56.80
2018-09-27T20:12:22.592Z,56.90
2018-09-27T20:14:50.667Z,57.10
2018-09-27T20:17:18.725Z,57.20
2018-09-27T20:19:46.810Z,57.40
2018-09-27T20:22:14.975Z,57.40
2018-09-27T20:24:42.974Z,57.40
2018-09-27T20:27:11.639Z,58.20
2018-09-27T20:29:39.918Z,57.60
2018-09-27T20:32:08.011Z,57.70
2018-09-27T20:34:36.117Z,57.80
2018-09-27T20:37:04.334Z,57.90
2018-09-27T20:39:32.539Z,58.00
2018-09-27T20:42:00.599Z,58.00
2018-09-27T20:44:28.768Z,58.10
2018-09-27T20:46:56.856Z,58.20
2018-09-27T20:49:24.975Z,58.40
2018-09-27T20:51:53.050Z,59.10
2018-09-27T20:54:21.138Z,58.60
2018-09-27T20:56:49.211Z,58.30
2018-09-27T20:59:17.343Z,58.70
2018-09-27T21:01:45.459Z,58.80
2018-09-27T21:04:13.532Z,58.80
2018-09-27T21:06:41.912Z,59.00
2018-09-27T21:09:11.827Z,59.00
2018-09-27T21:11:40.442Z,59.00
2018-09-27T21:14:08.682Z,59.20
2018-09-27T21:16:36.778Z,59.30
2018-09-27T21:19:04.912Z,59.30
2018-09-27T21:21:32.991Z,59.10
2018-09-27T21:24:01.041Z,59.30
2018-09-27T21:26:29.136Z,59.30
2018-09-27T21:28:57.199Z,59.30
2018-09-27T21:31:25.340Z,59.30
2018-09-27T21:33:53.435Z,59.30
2018-09-27T21:36:21.506Z,59.20
2018-09-27T21:38:49.582Z,59.40
2018-09-27T21:41:17.658Z,59.40
2018-09-27T21:43:45.730Z,59.40
2018-09-27T21:46:13.821Z,59.60
2018-09-27T21:48:41.886Z,59.60
2018-09-27T21:51:09.971Z,59.70
2018-09-27T21:53:38.136Z,59.70
2018-09-27T21:56:06.198Z,59.90
2018-09-27T21:58:34.278Z,59.80
2018-09-27T22:01:02.352Z,59.80
2018-09-27T22:03:30.437Z,59.90
2018-09-27T22:05:58.511Z,60.20
2018-09-27T22:08:26.566Z,60.30
2018-09-27T22:10:54.630Z,60.60
2018-09-27T22:13:22.702Z,60.90
2018-09-27T22:15:50.767Z,60.90
2018-09-27T22:18:18.838Z,61.40
2018-09-27T22:20:46.907Z,61.40
2018-09-27T22:23:14.988Z,61.40
2018-09-27T22:25:43.058Z,61.40
2018-09-27T22:28:11.122Z,61.40
2018-09-27T22:30:39.204Z,61.50
2018-09-27T22:33:07.274Z,62.40
2018-09-27T22:35:35.351Z,61.60
2018-09-27T22:38:03.799Z,61.70
2018-09-27T22:40:31.875Z,61.80
2018-09-27T22:42:59.970Z,61.60
2018-09-27T22:45:28.034Z,61.70
2018-09-27T22:47:56.099Z,61.60
2018-09-27T22:50:24.179Z,61.80
2018-09-27T22:52:52.280Z,61.90
2018-09-27T22:55:20.352Z,62.00
2018-09-27T22:57:48.420Z,62.00
2018-09-27T23:00:16.487Z,62.00
2018-09-27T23:02:44.617Z,62.20
2018-09-27T23:05:12.711Z,62.30
2018-09-27T23:07:40.783Z,62.20
2018-09-27T23:10:08.850Z,62.40
2018-09-27T23:12:36.926Z,62.30
2018-09-27T23:15:05.875Z,62.20
2018-09-27T23:17:33.971Z,62.50
2018-09-27T23:20:02.067Z,62.30
2018-09-27T23:22:30.122Z,62.30
2018-09-27T23:24:58.187Z,62.40
2018-09-27T23:27:26.268Z,62.50
2018-09-27T23:29:54.346Z,62.70
2018-09-27T23:32:22.422Z,63.00
2018-09-27T23:34:50.497Z,64.70
2018-09-27T23:37:18.556Z,64.50
2018-09-27T23:39:46.622Z,65.80
2018-09-27T23:42:14.702Z,65.50
2018-09-27T23:44:42.865Z,65.30
2018-09-27T23:47:10.918Z,65.30
2018-09-27T23:49:39.001Z,65.20
2018-09-27T23:52:07.074Z,65.10
2018-09-27T23:54:35.150Z,65.10
2018-09-27T23:57:03.238Z,65.10
2018-09-27T23:59:31.315Z,65.20
